Time;durP1;ratioP1;P1;durP2;ratioP2;P2;SDS_P1;SDS_P2;PMS_P1;PMS_P2;Temp;Humidity;BMP_temperature;BMP_pressure;BME280_temperature;BME280_humidity;BME280_pressure;Samples;Min_cycle;Max_cycle;Signal;HPM_P1;HPM_P2
2021/12/15 00:00:29;;;;;;;18.98;11.85;;;17.10;53.90;16.10;102385.00;;;;5013098;28;22883;-67
2021/12/15 00:03:16;;;;;;;18.75;12.00;;;17.20;53.90;16.10;102392.00;;;;5018322;28;20045;-67
2021/12/15 00:06:10;;;;;;;19.73;12.50;;;17.10;53.90;16.10;102391.00;;;;5012262;28;20041;-67
2021/12/15 00:08:58;;;;;;;19.88;12.10;;;17.10;54.00;16.10;102394.00;;;;5023152;28;20045;-67
2021/12/15 00:11:45;;;;;;;18.33;13.32;;;17.10;53.90;16.10;102388.00;;;;5031430;28;20061;-67
2021/12/15 00:14:33;;;;;;;19.10;12.43;;;17.20;53.90;16.10;102384.00;;;;5016524;28;20045;-67
2021/12/15 00:17:19;;;;;;;21.27;12.55;;;17.10;53.90;16.10;102387.00;;;;5021197;28;20540;-67
2021/12/15 00:20:09;;;;;;;17.58;12.15;;;17.20;53.90;16.10;102386.00;;;;5012738;28;20060;-67
2021/12/15 00:22:55;;;;;;;20.85;13.07;;;17.20;54.00;16.10;102384.00;;;;5021976;28;20390;-67
2021/12/15 00:25:42;;;;;;;18.77;12.35;;;17.20;54.00;16.10;102390.00;;;;5020259;28;20038;-67
2021/12/15 00:28:29;;;;;;;19.27;11.93;;;17.20;54.10;16.10;102392.00;;;;5018756;28;20065;-67
2021/12/15 00:31:15;;;;;;;18.02;12.30;;;17.10;54.00;16.10;102392.00;;;;5024777;28;20052;-67
2021/12/15 00:34:03;;;;;;;21.10;12.75;;;17.20;54.00;16.10;102390.00;;;;5018529;28;20087;-67
2021/12/15 00:36:49;;;;;;;;;;;17.10;54.00;16.10;102383.00;;;;5017553;28;20084;-67
2021/12/15 00:39:35;;;;;;;16.23;10.90;;;17.20;54.00;16.10;102395.00;;;;5040848;28;19917;-67
2021/12/15 00:42:22;;;;;;;18.23;12.20;;;17.10;53.90;16.10;102387.00;;;;5021104;28;20556;-67
2021/12/15 00:45:08;;;;;;;17.23;11.05;;;17.20;54.00;16.10;102390.00;;;;5018823;28;20045;-67
2021/12/15 00:47:57;;;;;;;18.05;11.75;;;17.10;54.00;16.10;102392.00;;;;5014160;28;20077;-67
2021/12/15 00:50:44;;;;;;;17.40;11.73;;;17.10;54.10;16.10;102397.00;;;;5016587;28;20069;-67
2021/12/15 00:53:30;;;;;;;16.67;11.23;;;17.10;54.00;16.10;102397.00;;;;5013368;28;20076;-67
2021/12/15 00:56:17;;;;;;;17.10;12.00;;;17.10;54.10;16.10;102405.00;;;;5032784;28;20387;-67
2021/12/15 01:07:08;;;;;;;15.60;11.23;;;17.10;54.10;16.00;102396.00;;;;5024365;28;20037;-67
2021/12/15 01:09:57;;;;;;;17.98;10.95;;;17.10;54.20;16.00;102399.00;;;;5025864;28;20044;-67
2021/12/15 01:21:55;;;;;;;18.20;11.60;;;17.10;54.20;16.00;102397.00;;;;5014884;28;20133;-67
2021/12/15 01:24:42;;;;;;;14.73;10.07;;;17.10;54.20;16.00;102405.00;;;;5019046;28;20070;-67
2021/12/15 01:27:28;;;;;;;16.25;11.35;;;17.10;54.30;16.10;102397.00;;;;5028125;28;20049;-67
2021/12/15 01:30:16;;;;;;;15.18;10.32;;;17.10;54.30;16.00;102403.00;;;;5013269;28;20050;-67
2021/12/15 01:33:03;;;;;;;17.17;11.45;;;17.10;54.30;16.10;102400.00;;;;5018042;28;20073;-67
2021/12/15 01:35:50;;;;;;;16.70;10.45;;;17.10;54.30;16.10;102406.00;;;;5008995;28;20056;-67
2021/12/15 01:38:39;;;;;;;15.90;10.63;;;17.10;54.30;16.10;102397.00;;;;5001946;28;20603;-67
2021/12/15 01:41:25;;;;;;;16.58;11.30;;;17.10;54.30;16.10;102399.00;;;;5025999;28;20319;-67
2021/12/15 01:47:02;;;;;;;15.88;11.05;;;17.10;54.30;16.10;102411.00;;;;5016276;28;20041;-67
2021/12/15 01:49:52;;;;;;;18.35;11.60;;;17.10;54.20;16.10;102416.00;;;;5003526;28;20478;-67
2021/12/15 01:52:40;;;;;;;16.48;11.10;;;17.10;54.30;16.10;102414.00;;;;5024499;28;20077;-67
2021/12/15 01:55:27;;;;;;;14.45;9.65;;;17.10;54.30;16.10;102406.00;;;;4995833;28;20041;-67
2021/12/15 01:58:14;;;;;;;17.83;10.63;;;17.10;54.30;16.10;102400.00;;;;5017747;28;20038;-67
2021/12/15 02:01:05;;;;;;;17.13;11.35;;;17.10;54.40;16.10;102397.00;;;;5022347;28;20057;-67
2021/12/15 02:03:51;;;;;;;17.73;10.57;;;17.10;54.40;16.10;102406.00;;;;5018896;28;20419;-67
2021/12/15 02:06:42;;;;;;;16.27;10.73;;;17.10;54.30;16.10;102402.00;;;;5019367;28;20495;-67
2021/12/15 02:12:24;;;;;;;16.65;11.45;;;17.10;54.30;16.10;102411.00;;;;5020491;28;20038;-67
2021/12/15 02:15:18;;;;;;;19.27;11.75;;;17.10;54.30;16.10;102404.00;;;;5025151;28;20056;-67
2021/12/15 02:18:06;;;;;;;19.88;12.30;;;17.10;54.40;16.10;102409.00;;;;5009372;28;20181;-67
2021/12/15 02:20:57;;;;;;;17.60;11.23;;;17.10;54.30;16.10;102406.00;;;;5014686;28;20038;-67
2021/12/15 02:23:49;;;;;;;16.50;10.77;;;17.10;54.40;16.10;102403.00;;;;5035075;28;20033;-67
2021/12/15 02:26:38;;;;;;;15.57;10.63;;;17.10;54.30;16.10;102409.00;;;;5018065;28;20479;-67
2021/12/15 02:29:25;;;;;;;17.70;11.27;;;17.10;54.30;16.10;102404.00;;;;5019270;28;20487;-67
2021/12/15 02:32:24;;;;;;;17.38;11.38;;;17.10;54.30;16.10;102410.00;;;;5014544;28;20055;-67
2021/12/15 02:38:17;;;;;;;17.15;11.27;;;17.10;54.30;16.10;102412.00;;;;5019604;28;20041;-67
2021/12/15 02:41:19;;;;;;;;;;;17.10;54.30;16.00;102409.00;;;;5024850;28;20037;-67
2021/12/15 02:44:14;;;;;;;17.80;11.88;;;17.10;54.20;16.00;102402.00;;;;4992294;28;19913;-67
2021/12/15 02:47:01;;;;;;;18.48;12.32;;;17.10;54.30;16.00;102400.00;;;;5026009;28;20088;-67
2021/12/15 02:49:49;;;;;;;17.75;11.88;;;17.10;54.20;16.00;102406.00;;;;5014298;28;20091;-67
2021/12/15 02:52:35;;;;;;;;;;;17.10;54.30;16.00;102410.00;;;;5029644;28;20454;-67
2021/12/15 02:55:21;;;;;;;19.40;12.27;;;17.10;54.30;16.00;102411.00;;;;5021845;28;19913;-67
2021/12/15 02:58:07;;;;;;;17.73;12.30;;;17.10;54.20;16.00;102407.00;;;;5023876;28;20046;-67
2021/12/15 03:01:03;;;;;;;21.48;14.02;;;17.10;54.30;16.00;102406.00;;;;5018502;28;20042;-67
2021/12/15 03:04:02;;;;;;;19.80;12.13;;;17.10;54.30;16.00;102415.00;;;;5014708;28;20045;-67
2021/12/15 03:06:57;;;;;;;23.02;13.98;;;17.00;54.30;16.00;102410.00;;;;5031573;28;20033;-67
2021/12/15 03:15:37;;;;;;;23.95;14.68;;;17.10;54.40;16.00;102405.00;;;;5017447;28;20048;-67
2021/12/15 03:18:25;;;;;;;20.42;13.55;;;17.00;54.30;16.00;102396.00;;;;5019445;28;20403;-67
2021/12/15 03:21:16;;;;;;;20.40;13.30;;;17.00;54.30;16.00;102404.00;;;;5023409;28;20033;-67
2021/12/15 03:24:19;;;;;;;21.13;13.68;;;17.10;54.40;16.00;102395.00;;;;5018472;28;20129;-67
2021/12/15 03:27:13;;;;;;;19.25;13.35;;;17.00;54.50;16.00;102403.00;;;;5011998;28;20076;-67
2021/12/15 03:36:13;;;;;;;20.55;13.07;;;17.00;54.40;16.00;102393.00;;;;5017669;28;20088;-67
2021/12/15 03:39:00;;;;;;;22.52;14.52;;;17.00;54.40;16.00;102401.00;;;;5022656;28;20038;-67
2021/12/15 03:41:52;;;;;;;20.98;12.93;;;17.00;54.40;16.00;102399.00;;;;5020183;28;20109;-67
2021/12/15 03:44:40;;;;;;;19.42;12.85;;;17.00;54.40;16.00;102395.00;;;;5018272;28;20038;-67
2021/12/15 03:47:33;;;;;;;21.02;13.48;;;17.00;54.40;16.00;102394.00;;;;5010854;28;20045;-67
2021/12/15 03:50:20;;;;;;;19.30;12.93;;;17.00;54.40;16.00;102404.00;;;;5023767;28;20445;-67
2021/12/15 03:53:06;;;;;;;18.63;12.10;;;17.00;54.40;16.00;102411.00;;;;5033897;28;20042;-67
2021/12/15 03:55:52;;;;;;;22.48;12.98;;;17.00;54.40;16.00;102400.00;;;;5016355;28;20540;-67
2021/12/15 03:58:39;;;;;;;20.15;12.75;;;17.00;54.40;16.00;102407.00;;;;5014613;28;20038;-67
2021/12/15 04:01:25;;;;;;;19.08;13.05;;;17.00;54.40;16.00;102405.00;;;;5021512;28;20037;-67
2021/12/15 04:04:11;;;;;;;22.63;13.18;;;17.00;54.50;16.10;102409.00;;;;5019033;28;20045;-67
2021/12/15 04:06:58;;;;;;;22.65;13.35;;;17.10;54.50;16.10;102411.00;;;;5013169;28;20081;-67
2021/12/15 04:09:44;;;;;;;20.38;13.63;;;17.10;54.50;16.10;102414.00;;;;5016032;28;20538;-67
2021/12/15 04:12:31;;;;;;;21.42;13.30;;;17.10;54.50;16.10;102423.00;;;;5014135;28;20068;-67
2021/12/15 04:18:12;;;;;;;19.35;12.32;;;17.10;54.50;16.10;102414.00;;;;5030029;28;20073;-67
2021/12/15 04:20:58;;;;;;;16.75;11.07;;;17.10;54.50;16.10;102421.00;;;;5009900;28;20498;-67
2021/12/15 04:23:50;;;;;;;21.80;13.10;;;17.10;54.50;16.10;102423.00;;;;5019232;28;20038;-67
2021/12/15 04:26:36;;;;;;;20.90;12.80;;;17.10;54.50;16.10;102426.00;;;;5011713;28;20117;-67
2021/12/15 04:29:22;;;;;;;19.00;12.13;;;17.10;54.40;16.10;102420.00;;;;5017492;28;20046;-67
2021/12/15 04:32:25;;;;;;;18.60;12.60;;;17.10;54.50;16.10;102421.00;;;;5022387;28;20046;-67
2021/12/15 04:35:11;;;;;;;20.63;12.55;;;17.10;54.40;16.10;102433.00;;;;5012588;28;20038;-67
2021/12/15 04:37:58;;;;;;;18.60;11.75;;;17.10;54.40;16.10;102428.00;;;;5019763;28;20045;-67
2021/12/15 04:40:44;;;;;;;19.77;12.75;;;17.10;54.40;16.10;102425.00;;;;5009207;28;20048;-67
2021/12/15 04:43:34;;;;;;;16.67;10.15;;;17.10;54.60;16.10;102428.00;;;;5019365;28;20037;-67
2021/12/15 04:46:20;;;;;;;17.60;10.95;;;17.10;54.40;16.10;102430.00;;;;5020895;28;20069;-67
2021/12/15 04:49:08;;;;;;;16.80;10.95;;;17.10;54.40;16.10;102434.00;;;;5015133;28;20450;-67
2021/12/15 04:51:54;;;;;;;;;;;17.10;54.40;16.10;102428.00;;;;5017751;28;20064;-67
2021/12/15 04:54:41;;;;;;;15.73;10.23;;;17.20;54.40;16.10;102431.00;;;;5042344;28;20321;-67
2021/12/15 04:57:27;;;;;;;17.55;10.88;;;17.20;54.30;16.10;102423.00;;;;5023966;28;20046;-67
2021/12/15 05:00:18;;;;;;;14.95;10.60;;;17.10;54.30;16.10;102422.00;;;;5011234;28;20068;-67
2021/12/15 05:03:08;;;;;;;16.25;10.68;;;17.20;54.50;16.10;102433.00;;;;5017425;28;20042;-67
2021/12/15 05:05:57;;;;;;;17.60;11.23;;;17.20;54.40;16.10;102434.00;;;;5020310;28;20041;-67
2021/12/15 05:08:43;;;;;;;14.80;10.25;;;17.20;54.40;16.10;102431.00;;;;5029854;28;20139;-67
2021/12/15 05:11:35;;;;;;;16.83;10.73;;;17.20;54.40;16.10;102427.00;;;;5012894;28;20046;-67
2021/12/15 05:14:23;;;;;;;14.18;9.65;;;17.20;54.50;16.20;102438.00;;;;5024004;28;20203;-67
2021/12/15 05:17:09;;;;;;;;;;;17.20;54.40;16.10;102442.00;;;;5007310;28;20132;-67
2021/12/15 05:20:00;;;;;;;12.73;9.23;;;17.20;54.30;16.10;102445.00;;;;5013929;28;19968;-67
2021/12/15 05:22:46;;;;;;;15.18;10.20;;;17.20;54.30;16.10;102436.00;;;;5018635;28;20038;-67
2021/12/15 05:25:34;;;;;;;14.77;10.00;;;17.20;54.30;16.10;102440.00;;;;5012146;28;20593;-67
2021/12/15 05:28:20;;;;;;;13.53;9.13;;;17.20;54.30;16.20;102450.00;;;;5014088;28;20196;-67
2021/12/15 05:31:06;;;;;;;16.92;9.30;;;17.20;54.30;16.10;102448.00;;;;5017135;28;20495;-67
2021/12/15 05:33:53;;;;;;;13.85;8.98;;;17.20;54.30;16.20;102446.00;;;;5021777;28;20456;-67
2021/12/15 05:36:46;;;;;;;12.65;9.13;;;17.20;54.40;16.20;102457.00;;;;5026639;28;20041;-67
2021/12/15 05:39:39;;;;;;;13.02;9.38;;;17.20;54.30;16.20;102454.00;;;;5022475;28;20049;-67
2021/12/15 05:42:26;;;;;;;14.30;9.50;;;17.20;54.40;16.20;102456.00;;;;5027631;28;20054;-67
2021/12/15 05:45:13;;;;;;;14.25;8.80;;;17.20;54.40;16.20;102452.00;;;;5012938;28;20038;-67
2021/12/15 05:47:59;;;;;;;13.65;9.10;;;17.20;54.40;16.20;102452.00;;;;5024858;28;20033;-67
2021/12/15 05:50:50;;;;;;;13.35;8.32;;;17.20;54.40;16.20;102456.00;;;;5012710;28;20045;-67
2021/12/15 05:53:36;;;;;;;13.10;9.23;;;17.20;54.40;16.20;102452.00;;;;5008831;28;20458;-68
2021/12/15 05:56:23;;;;;;;13.52;9.13;;;17.20;54.40;16.20;102457.00;;;;5018823;28;20041;-67
2021/12/15 05:59:09;;;;;;;12.98;8.65;;;17.20;54.40;16.20;102452.00;;;;5017970;28;20030;-67
2021/12/15 06:01:55;;;;;;;11.82;8.20;;;17.20;54.30;16.20;102462.00;;;;5020016;28;20148;-67
2021/12/15 06:04:42;;;;;;;12.70;8.25;;;17.20;54.30;16.20;102470.00;;;;5017862;28;20041;-67
2021/12/15 06:07:28;;;;;;;11.32;7.97;;;17.20;54.30;16.20;102463.00;;;;5024530;28;20096;-67
2021/12/15 06:10:19;;;;;;;11.82;8.80;;;17.20;54.30;16.20;102470.00;;;;5020619;28;20432;-67
2021/12/15 06:13:08;;;;;;;11.25;7.88;;;17.20;54.30;16.20;102464.00;;;;5023710;28;20052;-67
2021/12/15 06:15:55;;;;;;;11.90;7.97;;;17.20;54.30;16.20;102468.00;;;;5016164;28;20054;-67
2021/12/15 06:18:42;;;;;;;11.18;7.95;;;17.20;54.40;16.20;102470.00;;;;5020584;28;20029;-67
2021/12/15 06:21:36;;;;;;;11.23;7.68;;;17.20;54.30;16.20;102472.00;;;;5021953;28;20116;-67
2021/12/15 06:24:22;;;;;;;11.73;7.78;;;17.20;54.30;16.20;102472.00;;;;5020923;28;20041;-67
2021/12/15 06:27:16;;;;;;;11.68;8.50;;;17.20;54.30;16.20;102473.00;;;;5022022;28;20601;-67
2021/12/15 06:30:03;;;;;;;11.48;7.88;;;17.20;54.30;16.20;102471.00;;;;5019751;28;21052;-67
2021/12/15 06:32:50;;;;;;;12.57;8.68;;;17.20;54.30;16.20;102469.00;;;;5018869;28;20046;-67
2021/12/15 06:35:36;;;;;;;12.40;8.30;;;17.20;54.40;16.20;102478.00;;;;5021833;28;20509;-67
2021/12/15 06:38:32;;;;;;;12.93;8.18;;;17.20;54.30;16.20;102484.00;;;;5019328;28;20061;-67
2021/12/15 06:41:19;;;;;;;12.10;8.02;;;17.20;54.30;16.20;102485.00;;;;5020842;28;20107;-67
2021/12/15 06:44:06;;;;;;;13.23;8.33;;;17.20;54.30;16.20;102488.00;;;;5009603;28;20045;-67
2021/12/15 06:58:44;;;;;;;10.95;7.53;;;17.20;54.30;16.20;102489.00;;;;5023568;28;20041;-67
2021/12/15 07:01:30;;;;;;;12.93;8.57;;;17.20;54.30;16.20;102490.00;;;;5016127;28;20072;-67
2021/12/15 07:04:19;;;;;;;10.85;7.38;;;17.20;54.30;16.20;102496.00;;;;5023354;28;20511;-67
2021/12/15 07:07:05;;;;;;;13.95;8.73;;;17.20;54.30;16.20;102490.00;;;;5018535;28;20482;-67
2021/12/15 07:09:52;;;;;;;11.88;8.30;;;17.20;54.30;16.20;102488.00;;;;5014780;28;20701;-67
2021/12/15 07:12:38;;;;;;;12.05;8.13;;;17.20;54.30;16.20;102509.00;;;;5018674;28;20042;-67
2021/12/15 07:15:28;;;;;;;10.85;7.90;;;17.20;54.40;16.20;102513.00;;;;5004804;28;20150;-67
2021/12/15 07:18:25;;;;;;;10.48;7.13;;;17.20;54.40;16.20;102511.00;;;;5013030;28;20060;-67
2021/12/15 07:21:18;;;;;;;12.98;8.00;;;17.20;54.30;16.20;102515.00;;;;5009545;28;20034;-67
2021/12/15 07:24:08;;;;;;;11.10;7.50;;;17.20;54.30;16.20;102516.00;;;;5007647;28;20418;-67
2021/12/15 07:26:54;;;;;;;12.55;7.47;;;17.20;54.30;16.20;102512.00;;;;5015151;28;20060;-67
2021/12/15 07:29:41;;;;;;;11.25;7.75;;;17.20;54.30;16.20;102503.00;;;;5012497;28;20033;-67
2021/12/15 07:32:27;;;;;;;13.13;8.32;;;17.20;54.30;16.20;102504.00;;;;5016563;28;20053;-67
2021/12/15 07:35:17;;;;;;;13.35;8.35;;;17.20;54.30;16.20;102515.00;;;;5015259;28;20140;-67
2021/12/15 07:38:07;;;;;;;13.45;7.75;;;17.20;54.30;16.20;102504.00;;;;5013924;28;20046;-67
2021/12/15 07:40:53;;;;;;;9.57;7.18;;;17.20;54.30;16.20;102517.00;;;;5011459;28;20069;-67
2021/12/15 07:43:40;;;;;;;12.63;8.35;;;17.20;54.30;16.20;102519.00;;;;5014783;28;20058;-67
2021/12/15 07:46:26;;;;;;;12.63;8.25;;;17.20;54.30;16.20;102522.00;;;;5010225;28;20057;-66
2021/12/15 07:49:14;;;;;;;11.15;7.63;;;17.20;54.30;16.20;102520.00;;;;5015821;28;20107;-67
2021/12/15 07:52:01;;;;;;;12.38;8.10;;;17.20;54.30;16.20;102523.00;;;;5009935;28;21549;-67
2021/12/15 07:54:47;;;;;;;12.57;8.43;;;17.20;54.30;16.20;102525.00;;;;5016586;28;20041;-67
2021/12/15 07:57:34;;;;;;;11.82;7.68;;;17.20;54.20;16.20;102522.00;;;;5018221;28;20042;-67
2021/12/15 08:00:21;;;;;;;9.68;7.10;;;17.20;54.20;16.20;102521.00;;;;5019525;28;20476;-67
2021/12/15 08:03:11;;;;;;;11.38;7.43;;;17.20;54.60;16.20;102531.00;;;;5014886;28;20351;-67
2021/12/15 08:05:58;;;;;;;11.43;7.28;;;17.20;54.20;16.20;102538.00;;;;5003453;28;20118;-67
2021/12/15 08:08:44;;;;;;;12.75;8.38;;;17.20;54.20;16.20;102531.00;;;;5035627;28;20245;-67
2021/12/15 08:11:31;;;;;;;11.73;7.97;;;17.20;54.30;16.20;102520.00;;;;5029265;28;20137;-67
2021/12/15 08:14:18;;;;;;;12.25;8.23;;;17.20;54.20;16.20;102532.00;;;;5005778;28;20128;-67
2021/12/15 08:17:04;;;;;;;12.98;8.57;;;17.20;54.30;16.20;102531.00;;;;5015219;28;20045;-67
2021/12/15 08:19:51;;;;;;;12.60;8.48;;;17.30;54.30;16.20;102539.00;;;;5019707;28;20041;-67
2021/12/15 08:22:41;;;;;;;11.32;8.00;;;17.20;54.30;16.20;102532.00;;;;5014641;28;20148;-67
2021/12/15 08:25:29;;;;;;;11.48;8.23;;;17.20;54.30;16.20;102538.00;;;;4999905;28;20604;-67
2021/12/15 08:28:19;;;;;;;13.55;8.90;;;17.20;54.20;16.20;102538.00;;;;5015030;28;20072;-67
2021/12/15 08:31:14;;;;;;;12.43;8.52;;;17.20;54.30;16.20;102537.00;;;;5023545;28;20108;-67
2021/12/15 08:34:01;;;;;;;13.65;8.40;;;17.20;54.30;16.20;102543.00;;;;5030702;28;20130;-67
2021/12/15 08:36:49;;;;;;;13.60;9.57;;;17.20;54.30;16.20;102539.00;;;;5017349;28;20128;-67
2021/12/15 08:39:36;;;;;;;14.68;8.70;;;17.20;54.30;16.20;102538.00;;;;5008524;28;20044;-67
2021/12/15 08:42:23;;;;;;;12.07;8.05;;;17.20;54.30;16.20;102547.00;;;;5017575;28;20120;-67
2021/12/15 08:45:10;;;;;;;13.33;8.47;;;17.20;54.30;16.20;102549.00;;;;5020319;28;20870;-68
2021/12/15 08:47:58;;;;;;;13.68;9.02;;;17.20;54.30;16.20;102552.00;;;;5019993;28;20052;-67
2021/12/15 08:50:45;;;;;;;14.75;9.30;;;17.20;54.30;16.20;102551.00;;;;5021373;28;20430;-67
2021/12/15 08:53:37;;;;;;;16.88;10.95;;;17.20;54.30;16.20;102551.00;;;;5019487;28;20037;-67
2021/12/15 08:56:24;;;;;;;15.48;9.55;;;17.20;54.40;16.20;102550.00;;;;5011214;28;20050;-67
2021/12/15 08:59:13;;;;;;;15.80;9.65;;;17.20;54.40;16.20;102557.00;;;;5014261;28;20048;-67
2021/12/15 09:02:00;;;;;;;16.23;10.27;;;17.30;54.40;16.20;102557.00;;;;5007185;28;20400;-67
2021/12/15 09:04:46;;;;;;;16.58;9.73;;;17.20;54.30;16.20;102558.00;;;;5008580;28;20048;-67
2021/12/15 09:07:33;;;;;;;17.35;10.35;;;17.20;54.30;16.20;102552.00;;;;5014859;28;20080;-67
2021/12/15 09:10:24;;;;;;;16.90;10.45;;;17.30;54.50;16.20;102558.00;;;;5014146;28;20049;-67
2021/12/15 09:13:10;;;;;;;14.77;9.63;;;17.20;54.40;16.20;102553.00;;;;5021538;28;20129;-67
2021/12/15 09:16:04;;;;;;;16.92;9.77;;;17.20;54.30;16.20;102564.00;;;;5032398;28;20034;-67
2021/12/15 09:18:52;;;;;;;16.98;10.18;;;17.20;54.40;16.20;102565.00;;;;5020498;28;20452;-67
2021/12/15 09:21:39;;;;;;;18.38;10.85;;;17.20;54.40;16.20;102562.00;;;;5010531;28;20045;-67
2021/12/15 09:24:26;;;;;;;16.45;9.90;;;17.20;54.40;16.20;102562.00;;;;5017629;28;20531;-67
2021/12/15 09:27:12;;;;;;;18.92;11.27;;;17.20;54.40;16.20;102558.00;;;;5016032;28;20095;-67
2021/12/15 09:29:59;;;;;;;17.15;10.63;;;17.20;54.40;16.20;102561.00;;;;5017133;28;20045;-67
2021/12/15 09:32:46;;;;;;;17.60;10.93;;;17.30;54.50;16.20;102560.00;;;;5013344;28;20100;-67
2021/12/15 09:35:32;;;;;;;18.48;10.73;;;17.30;54.40;16.20;102571.00;;;;5015264;28;20057;-67
2021/12/15 09:38:20;;;;;;;16.83;10.23;;;17.20;54.40;16.30;102568.00;;;;5014411;28;20049;-67
2021/12/15 09:41:09;;;;;;;21.45;12.30;;;17.30;54.50;16.30;102565.00;;;;5026779;28;20056;-67
2021/12/15 09:43:58;;;;;;;19.30;12.13;;;17.30;54.50;16.20;102564.00;;;;5009774;28;20038;-67
2021/12/15 10:02:33;;;;;;;19.42;11.05;;;17.20;54.60;16.20;102583.00;;;;5014231;28;20217;-67
2021/12/15 10:12:18;;;;;;;21.15;12.85;;;17.20;54.60;16.20;102587.00;;;;5018147;28;20044;-67
2021/12/15 10:21:27;;;;;;;22.25;13.20;;;17.00;54.80;16.10;102587.00;;;;5022950;28;20029;-67
2021/12/15 10:24:14;;;;;;;22.20;12.25;;;17.10;55.00;16.10;102582.00;;;;5021203;28;20038;-67
2021/12/15 10:27:03;;;;;;;23.70;12.73;;;17.10;54.90;16.10;102577.00;;;;5015245;28;20037;-67
2021/12/15 10:30:38;;;;;;;21.65;12.88;;;17.00;55.00;16.10;102584.00;;;;5021508;28;20041;-67
2021/12/15 10:33:41;;;;;;;21.50;13.18;;;17.00;55.00;16.10;102585.00;;;;5011875;28;20407;-67
2021/12/15 10:36:33;;;;;;;20.73;12.52;;;17.00;55.10;16.00;102577.00;;;;5019770;28;20073;-67
2021/12/15 10:39:22;;;;;;;20.10;12.05;;;17.00;55.10;16.00;102581.00;;;;5002156;28;20053;-67
2021/12/15 10:42:08;;;;;;;21.80;12.25;;;17.00;55.80;16.00;102586.00;;;;5010096;28;20129;-67
2021/12/15 10:45:13;;;;;;;21.60;13.65;;;17.00;55.20;16.00;102583.00;;;;5010558;28;20044;-67
2021/12/15 10:48:34;;;;;;;21.15;12.52;;;16.90;55.10;16.00;102593.00;;;;5019946;28;20060;-67
2021/12/15 10:51:49;;;;;;;20.35;11.63;;;17.00;55.20;16.00;102596.00;;;;5016612;28;20045;-67
2021/12/15 10:54:44;;;;;;;19.40;12.30;;;17.00;55.20;16.00;102587.00;;;;5020945;28;20483;-67
2021/12/15 10:57:34;;;;;;;19.30;12.15;;;17.00;55.30;16.00;102595.00;;;;5024232;28;20426;-67
2021/12/15 11:00:20;;;;;;;20.75;12.20;;;17.00;55.30;16.00;102584.00;;;;5034208;28;20038;-67
2021/12/15 11:03:14;;;;;;;23.02;12.77;;;17.00;56.00;16.00;102586.00;;;;5018008;28;20033;-67
2021/12/15 11:06:17;;;;;;;19.95;13.05;;;17.00;55.30;16.00;102588.00;;;;5022004;28;20048;-67
2021/12/15 11:09:19;;;;;;;20.42;12.13;;;17.00;55.50;16.00;102594.00;;;;5001500;28;20041;-67
2021/12/15 11:12:10;;;;;;;19.67;12.50;;;16.90;55.40;16.00;102588.00;;;;5026074;28;20183;-67
2021/12/15 11:15:40;;;;;;;20.67;12.00;;;16.90;55.40;16.00;102591.00;;;;5016012;28;20074;-67
2021/12/15 11:18:29;;;;;;;18.20;11.75;;;16.90;55.40;16.00;102594.00;;;;5014019;28;20404;-70
2021/12/15 11:21:15;;;;;;;18.88;11.65;;;16.90;55.40;15.90;102577.00;;;;5010642;28;20052;-68
2021/12/15 11:24:01;;;;;;;20.67;12.55;;;17.00;55.80;15.90;102589.00;;;;5015145;28;20099;-67
2021/12/15 11:26:47;;;;;;;21.88;13.00;;;16.90;55.70;15.80;102579.00;;;;5019371;28;20494;-67
2021/12/15 11:29:43;;;;;;;20.77;13.13;;;16.80;55.70;15.80;102578.00;;;;5008446;28;20042;-67
2021/12/15 11:32:48;;;;;;;19.50;12.40;;;16.80;55.90;15.80;102583.00;;;;5031116;28;20045;-67
2021/12/15 11:35:49;;;;;;;19.40;12.30;;;16.80;56.00;15.80;102583.00;;;;5012404;28;20058;-67
2021/12/15 11:38:46;;;;;;;20.92;12.50;;;16.70;56.00;15.90;102585.00;;;;5009146;28;20045;-67
2021/12/15 11:41:39;;;;;;;21.83;12.52;;;16.70;55.90;15.90;102587.00;;;;5013992;28;20044;-68
2021/12/15 11:44:26;;;;;;;21.02;11.68;;;16.80;56.00;15.90;102580.00;;;;5018250;28;20257;-68
2021/12/15 11:47:13;;;;;;;19.37;11.80;;;16.70;56.00;15.90;102576.00;;;;5041282;28;20611;-68
2021/12/15 11:50:13;;;;;;;24.25;13.20;;;16.80;56.10;15.90;102574.00;;;;5013228;28;20033;-68
2021/12/15 11:52:59;;;;;;;21.70;12.43;;;16.70;56.10;15.90;102571.00;;;;5017123;28;20089;-68
2021/12/15 11:55:45;;;;;;;20.35;11.88;;;16.70;56.10;15.90;102571.00;;;;5020430;28;20037;-68
2021/12/15 11:58:31;;;;;;;20.48;11.50;;;16.80;56.10;15.90;102564.00;;;;5016364;28;20048;-68
2021/12/15 12:01:58;;;;;;;23.48;11.63;;;16.80;56.10;15.90;102571.00;;;;5020515;28;20049;-68
2021/12/15 12:04:51;;;;;;;22.60;11.35;;;16.80;56.20;15.90;102575.00;;;;5015389;28;20094;-68
2021/12/15 12:07:57;;;;;;;22.45;11.20;;;16.80;56.10;15.90;102570.00;;;;5012868;28;20049;-68
2021/12/15 12:10:48;;;;;;;28.35;12.82;;;16.80;56.10;16.00;102575.00;;;;5016782;28;20049;-68
2021/12/15 12:13:39;;;;;;;26.92;12.60;;;16.80;56.10;16.00;102565.00;;;;5018067;28;20118;-68
2021/12/15 12:16:25;;;;;;;27.60;12.52;;;16.90;56.10;16.00;102570.00;;;;5019630;28;20042;-68
2021/12/15 12:19:13;;;;;;;18.27;9.80;;;16.90;55.90;16.00;102569.00;;;;5022087;28;20041;-68
2021/12/15 12:21:59;;;;;;;;;;;16.90;55.90;16.00;102569.00;;;;5021832;28;20072;-68
2021/12/15 12:24:48;;;;;;;20.17;10.93;;;16.90;55.80;16.00;102572.00;;;;5041086;28;19917;-68
2021/12/15 12:27:35;;;;;;;20.25;10.98;;;17.00;55.80;16.10;102568.00;;;;5020603;28;20046;-68
2021/12/15 12:30:31;;;;;;;19.83;11.02;;;17.00;55.80;16.10;102563.00;;;;5031906;28;20048;-68
2021/12/15 12:33:19;;;;;;;20.13;10.45;;;17.00;55.80;16.10;102546.00;;;;5020478;28;20052;-68
2021/12/15 12:36:16;;;;;;;16.42;10.40;;;17.00;55.70;16.10;102553.00;;;;5029832;28;20049;-67
2021/12/15 12:39:10;;;;;;;19.05;10.07;;;17.00;55.70;16.10;102556.00;;;;5010359;28;20045;-68
2021/12/15 12:41:56;;;;;;;18.52;10.95;;;17.00;55.60;16.10;102551.00;;;;5010562;28;20034;-68
2021/12/15 12:44:49;;;;;;;20.33;10.52;;;17.10;55.60;16.10;102556.00;;;;5021187;28;20112;-68
2021/12/15 12:47:41;;;;;;;20.10;10.95;;;17.10;55.70;16.10;102545.00;;;;5013570;28;20041;-68
2021/12/15 13:00:39;;;;;;;17.10;9.68;;;17.20;55.50;16.10;102537.00;;;;5014555;28;20046;-68
2021/12/15 13:03:44;;;;;;;15.98;9.70;;;17.20;55.50;16.20;102545.00;;;;5017329;28;20868;-68
2021/12/15 13:06:31;;;;;;;16.75;9.90;;;17.20;55.50;16.20;102542.00;;;;5012033;28;20071;-68
2021/12/15 13:09:17;;;;;;;19.38;10.00;;;17.20;55.40;16.20;102541.00;;;;5013563;28;20150;-68
2021/12/15 13:12:25;;;;;;;17.73;10.13;;;17.20;55.40;16.20;102548.00;;;;5032956;28;20052;-68
2021/12/15 13:15:11;;;;;;;17.67;10.13;;;17.20;55.40;16.20;102543.00;;;;5000062;28;20056;-68
2021/12/15 13:18:03;;;;;;;20.88;11.45;;;17.20;55.30;16.20;102545.00;;;;5012927;28;20050;-67
2021/12/15 13:20:58;;;;;;;20.63;10.80;;;17.20;55.40;16.20;102537.00;;;;5038302;28;20472;-68
2021/12/15 13:23:59;;;;;;;18.38;9.70;;;17.20;55.30;16.20;102537.00;;;;5020978;28;20041;-68
2021/12/15 13:29:52;;;;;;;19.98;10.35;;;17.20;55.30;16.20;102545.00;;;;5015818;28;20132;-68
2021/12/15 13:32:46;;;;;;;18.70;10.30;;;17.30;55.30;16.30;102552.00;;;;5009210;28;20045;-67
2021/12/15 13:35:42;;;;;;;19.88;10.88;;;17.20;55.30;16.30;102543.00;;;;5039337;28;20061;-67
2021/12/15 13:39:19;;;;;;;19.85;10.15;;;17.20;55.30;16.30;102543.00;;;;5013401;28;20475;-67
2021/12/15 13:42:11;;;;;;;21.85;11.15;;;17.20;55.20;16.20;102547.00;;;;5014975;28;20042;-67
2021/12/15 13:44:58;;;;;;;21.52;10.57;;;17.30;55.20;16.30;102542.00;;;;5009416;28;20388;-68
2021/12/15 13:47:44;;;;;;;18.88;10.85;;;17.30;55.20;16.30;102554.00;;;;5020102;28;20037;-68
2021/12/15 13:50:31;;;;;;;19.92;11.18;;;17.30;55.10;16.30;102540.00;;;;5019476;28;20042;-68